createdAt,value
2018-05-24T00:02:52.478Z,14.40
2018-05-24T00:07:53.872Z,14.20
2018-05-24T00:12:55.348Z,14.00
2018-05-24T00:17:57.492Z,13.70
2018-05-24T00:22:58.942Z,13.70
2018-05-24T00:28:00.268Z,13.60
2018-05-24T00:33:02.637Z,13.30
2018-05-24T00:38:04.058Z,13.30
2018-05-24T00:43:05.385Z,13.20
2018-05-24T00:48:08.064Z,13.00
2018-05-24T00:53:10.528Z,13.00
2018-05-24T00:58:11.866Z,12.40
2018-05-24T01:03:13.545Z,13.00
2018-05-24T01:08:14.940Z,13.10
2018-05-24T01:13:16.575Z,12.80
2018-05-24T01:18:17.888Z,12.20
2018-05-24T01:23:19.242Z,12.60
2018-05-24T01:28:20.913Z,12.50
2018-05-24T01:33:22.804Z,12.40
2018-05-24T01:38:24.908Z,12.30
2018-05-24T01:43:26.771Z,12.30
2018-05-24T01:48:28.062Z,12.30
2018-05-24T01:53:29.422Z,12.20
2018-05-24T01:58:30.732Z,12.10
2018-05-24T02:03:32.107Z,11.80
2018-05-24T02:08:33.491Z,11.80
2018-05-24T02:13:34.791Z,11.90
2018-05-24T02:18:36.121Z,12.20
2018-05-24T02:23:37.442Z,12.50
2018-05-24T02:28:38.858Z,12.90
2018-05-24T02:33:40.221Z,13.20
2018-05-24T02:38:41.517Z,13.50
2018-05-24T02:43:42.845Z,13.70
2018-05-24T02:48:44.147Z,13.90
2018-05-24T02:53:45.527Z,13.50
2018-05-24T02:58:46.866Z,13.40
2018-05-24T03:03:48.206Z,13.60
2018-05-24T03:08:49.516Z,13.80
2018-05-24T03:13:50.875Z,14.00
2018-05-24T03:18:52.288Z,14.30
2018-05-24T03:23:53.554Z,14.40
2018-05-24T03:28:54.863Z,14.60
2018-05-24T03:33:56.271Z,14.80
2018-05-24T03:38:57.631Z,14.90
2018-05-24T03:43:59.020Z,15.00
2018-05-24T03:49:00.398Z,15.10
2018-05-24T03:54:01.760Z,15.00
2018-05-24T04:04:52.276Z,14.50
2018-05-24T04:09:54.262Z,14.80
2018-05-24T04:14:55.613Z,14.70
2018-05-24T04:19:57.617Z,15.00
2018-05-24T04:24:58.914Z,15.00
2018-05-24T04:30:00.282Z,15.20
2018-05-24T04:35:01.771Z,15.30
2018-05-24T04:40:03.027Z,15.40
2018-05-24T04:45:05.082Z,15.50
2018-05-24T04:50:06.332Z,15.50
2018-05-24T04:55:07.642Z,15.60
2018-05-24T05:00:09.657Z,15.80
2018-05-24T05:05:10.899Z,15.70
2018-05-24T05:10:12.256Z,15.80
2018-05-24T05:15:13.550Z,15.90
2018-05-24T05:20:14.838Z,16.00
2018-05-24T05:25:16.258Z,16.10
2018-05-24T05:30:17.516Z,16.20
2018-05-24T05:35:18.908Z,16.40
2018-05-24T05:40:20.176Z,16.70
2018-05-24T05:45:21.396Z,17.40
2018-05-24T05:50:22.662Z,17.50
2018-05-24T05:55:23.954Z,17.60
2018-05-24T06:00:25.185Z,17.60
2018-05-24T06:05:26.494Z,17.40
2018-05-24T06:10:27.833Z,17.30
2018-05-24T06:15:29.179Z,17.10
2018-05-24T06:20:31.184Z,17.00
2018-05-24T06:25:32.553Z,17.10
2018-05-24T06:30:33.961Z,16.90
2018-05-24T06:35:35.277Z,16.90
2018-05-24T06:40:36.853Z,16.90
2018-05-24T06:45:38.045Z,16.60
2018-05-24T06:50:40.164Z,16.80
2018-05-24T06:55:41.434Z,16.80
2018-05-24T07:00:42.747Z,17.10
2018-05-24T07:05:44.830Z,17.80
2018-05-24T07:10:46.889Z,18.50
2018-05-24T07:15:48.204Z,18.50
2018-05-24T07:20:49.581Z,19.10
2018-05-24T07:25:50.912Z,19.40
2018-05-24T07:30:52.212Z,19.40
2018-05-24T07:35:53.522Z,19.60
2018-05-24T07:40:55.523Z,19.00
2018-05-24T07:45:56.850Z,19.00
2018-05-24T07:50:58.866Z,19.90
2018-05-24T07:56:00.195Z,19.90
2018-05-24T08:01:02.294Z,21.60
2018-05-24T08:06:03.635Z,21.50
2018-05-24T08:11:05.613Z,21.00
2018-05-24T08:16:06.945Z,21.00
2018-05-24T08:21:08.191Z,21.10
2018-05-24T08:26:09.567Z,21.50
2018-05-24T08:31:10.802Z,21.70
2018-05-24T08:36:12.153Z,20.60
2018-05-24T08:41:14.445Z,20.60
2018-05-24T08:46:15.764Z,19.60
2018-05-24T08:51:17.800Z,19.40
2018-05-24T08:56:19.042Z,19.30
2018-05-24T09:01:20.432Z,19.30
2018-05-24T09:06:21.817Z,18.70
2018-05-24T09:11:23.211Z,18.50
2018-05-24T09:16:25.279Z,18.30
2018-05-24T09:21:26.582Z,18.20
2018-05-24T09:26:27.935Z,18.30
2018-05-24T09:31:29.249Z,18.10
2018-05-24T09:36:30.635Z,18.50
2018-05-24T09:41:31.949Z,19.70
2018-05-24T09:46:33.213Z,20.70
2018-05-24T09:51:34.450Z,21.40
2018-05-24T09:56:35.776Z,21.40
2018-05-24T10:01:37.890Z,21.50
2018-05-24T10:06:39.171Z,21.50
2018-05-24T10:11:41.493Z,21.50
2018-05-24T10:16:42.844Z,21.10
2018-05-24T10:21:44.060Z,21.40
2018-05-24T10:26:45.554Z,21.40
2018-05-24T10:31:46.826Z,22.70
2018-05-24T10:36:48.226Z,23.50
2018-05-24T10:41:50.335Z,23.00
2018-05-24T10:46:51.625Z,23.00
2018-05-24T10:51:52.915Z,23.90
2018-05-24T10:56:54.254Z,24.20
2018-05-24T11:01:55.661Z,23.70
2018-05-24T11:06:57.660Z,24.10
2018-05-24T11:11:58.949Z,24.10
2018-05-24T11:17:01.047Z,24.10
2018-05-24T11:22:02.489Z,24.10
2018-05-24T11:27:03.921Z,23.80
2018-05-24T11:32:06.510Z,24.00
2018-05-24T11:37:07.797Z,24.80
2018-05-24T11:42:09.125Z,24.80
2018-05-24T11:47:11.180Z,23.70
2018-05-24T11:52:12.508Z,23.70
2018-05-24T11:57:13.798Z,23.40
2018-05-24T12:02:15.269Z,23.40
2018-05-24T12:07:16.583Z,23.10
2018-05-24T12:12:17.910Z,23.00
2018-05-24T12:17:19.888Z,23.70
2018-05-24T12:22:21.886Z,23.80
2018-05-24T12:27:23.275Z,23.80
2018-05-24T12:32:24.534Z,24.00
2018-05-24T12:37:25.826Z,23.80
2018-05-24T12:42:29.494Z,23.80
2018-05-24T12:47:30.988Z,22.90
2018-05-24T12:52:32.257Z,22.20
2018-05-24T12:57:33.539Z,21.50
2018-05-24T13:02:35.709Z,21.70
2018-05-24T13:07:37.176Z,21.70
2018-05-24T13:12:38.431Z,21.90
2018-05-24T13:17:39.778Z,22.50
2018-05-24T13:22:40.999Z,22.80
2018-05-24T13:27:43.009Z,23.00
2018-05-24T13:32:44.409Z,23.00
2018-05-24T13:37:45.728Z,22.90
2018-05-24T13:42:47.071Z,22.70
2018-05-24T13:47:49.180Z,22.70
2018-05-24T13:52:50.882Z,22.70
2018-05-24T13:57:52.227Z,23.20
2018-05-24T14:02:53.619Z,23.60
2018-05-24T14:07:55.801Z,23.50
2018-05-24T14:12:57.919Z,23.90
2018-05-24T14:17:59.321Z,23.90
2018-05-24T14:23:00.707Z,23.80
2018-05-24T14:28:02.073Z,22.50
2018-05-24T14:33:04.137Z,22.80
2018-05-24T14:38:05.511Z,22.80
2018-05-24T14:43:06.890Z,23.00
2018-05-24T14:48:08.271Z,22.60
2018-05-24T14:53:10.379Z,22.80
2018-05-24T14:58:11.753Z,22.80
2018-05-24T15:03:13.145Z,22.00
2018-05-24T15:08:14.540Z,22.40
2018-05-24T15:13:28.151Z,22.10
2018-05-24T15:18:30.418Z,22.40
2018-05-24T15:23:31.710Z,22.40
2018-05-24T15:28:33.282Z,22.30
2018-05-24T15:33:34.700Z,22.60
2018-05-24T15:38:36.082Z,23.70
2018-05-24T15:43:37.486Z,25.40
2018-05-24T15:48:38.895Z,24.70
2018-05-24T15:53:40.194Z,24.90
2018-05-24T15:58:42.141Z,26.10
2018-05-24T16:03:43.548Z,25.10
2018-05-24T16:08:44.886Z,24.50
2018-05-24T16:13:46.981Z,25.90
2018-05-24T16:18:48.379Z,25.80
2018-05-24T16:23:50.428Z,25.70
2018-05-24T16:28:53.238Z,23.40
2018-05-24T16:33:55.415Z,22.20
2018-05-24T16:38:56.799Z,22.20
2018-05-24T16:43:58.269Z,22.10
2018-05-24T16:48:59.607Z,21.20
2018-05-24T16:54:01.030Z,21.10
2018-05-24T16:59:03.089Z,20.60
2018-05-24T17:04:04.455Z,20.60
2018-05-24T17:09:05.800Z,20.30
2018-05-24T17:14:07.845Z,19.90
2018-05-24T17:19:09.202Z,19.90
2018-05-24T17:24:10.549Z,19.60
2018-05-24T17:29:11.998Z,19.60
2018-05-24T17:34:13.361Z,19.50
2018-05-24T17:39:14.711Z,19.40
2018-05-24T17:44:16.071Z,19.20
2018-05-24T17:49:17.393Z,19.10
2018-05-24T17:54:18.805Z,19.00
2018-05-24T17:59:20.207Z,19.10
2018-05-24T18:04:21.485Z,19.10
2018-05-24T18:09:22.765Z,18.90
2018-05-24T18:14:24.773Z,18.30
2018-05-24T18:19:26.111Z,18.30
2018-05-24T18:24:27.419Z,18.10
2018-05-24T18:29:29.567Z,17.70
2018-05-24T18:34:34.814Z,17.70
2018-05-24T18:39:36.482Z,17.60
2018-05-24T18:44:38.539Z,17.30
2018-05-24T18:49:39.922Z,17.30
2018-05-24T18:54:41.954Z,17.00
2018-05-24T18:59:43.289Z,17.00
2018-05-24T19:04:44.655Z,16.90
2018-05-24T19:09:45.990Z,16.80
2018-05-24T19:14:47.360Z,16.60
2018-05-24T19:19:48.825Z,16.50
2018-05-24T19:24:50.881Z,16.60
2018-05-24T19:29:52.271Z,16.50
2018-05-24T19:34:53.603Z,16.60
2018-05-24T19:39:54.948Z,16.60
2018-05-24T19:44:56.224Z,16.70
2018-05-24T19:49:57.562Z,17.00
2018-05-24T19:54:58.796Z,16.80
2018-05-24T20:00:00.147Z,16.70
2018-05-24T20:05:03.618Z,16.70
2018-05-24T20:10:05.919Z,16.60
2018-05-24T20:15:09.170Z,16.50
2018-05-24T20:20:10.605Z,16.50
2018-05-24T20:25:12.586Z,16.40
2018-05-24T20:30:14.624Z,16.30
2018-05-24T20:35:15.940Z,16.20
2018-05-24T20:40:17.215Z,16.10
2018-05-24T20:45:18.578Z,15.80
2018-05-24T20:50:19.984Z,16.00
2018-05-24T20:55:21.419Z,15.90
2018-05-24T21:00:22.734Z,15.80
2018-05-24T21:05:24.041Z,15.80
2018-05-24T21:10:25.348Z,15.70
2018-05-24T21:15:26.747Z,15.60
2018-05-24T21:20:29.207Z,15.40
2018-05-24T21:25:31.258Z,15.10
2018-05-24T21:30:32.671Z,15.00
2018-05-24T21:35:35.805Z,14.80
2018-05-24T21:40:37.114Z,14.80
2018-05-24T21:45:39.489Z,14.80
2018-05-24T21:50:41.635Z,14.60
2018-05-24T21:55:43.009Z,14.60
2018-05-24T22:00:50.658Z,14.40
2018-05-24T22:05:52.853Z,14.40
2018-05-24T22:10:54.958Z,14.50
2018-05-24T22:15:56.949Z,14.50
2018-05-24T22:20:58.212Z,14.50
2018-05-24T22:25:59.516Z,14.50
2018-05-24T22:31:00.913Z,14.50
2018-05-24T22:36:02.266Z,14.30
2018-05-24T22:41:03.630Z,14.20
2018-05-24T22:46:05.666Z,14.20
2018-05-24T22:51:06.988Z,14.10
2018-05-24T22:56:08.385Z,14.10
2018-05-24T23:01:09.631Z,14.00
2018-05-24T23:06:10.918Z,13.90
2018-05-24T23:11:12.275Z,13.80
2018-05-24T23:16:13.593Z,13.80
2018-05-24T23:21:14.982Z,13.80
2018-05-24T23:26:16.378Z,13.80
2018-05-24T23:31:17.766Z,13.90
2018-05-24T23:36:19.806Z,14.00
2018-05-24T23:41:21.117Z,13.90
2018-05-24T23:46:23.127Z,14.10
2018-05-24T23:51:24.425Z,14.00
2018-05-24T23:56:25.932Z,14.00
